sensor_id;sensor_type;location;lat;lon;timestamp;P1;durP1;ratioP1;P2;durP2;ratioP2
20008;SDS011;10165;42.662;23.260;2024-03-02T00:02:06;13.90;;;8.63;;
20008;SDS011;10165;42.662;23.260;2024-03-02T00:04:33;20.33;;;8.80;;
20008;SDS011;10165;42.662;23.260;2024-03-02T00:07:00;20.00;;;9.50;;
20008;SDS011;10165;42.662;23.260;2024-03-02T00:09:27;20.60;;;9.50;;
20008;SDS011;10165;42.662;23.260;2024-03-02T00:11:53;18.73;;;9.93;;
20008;SDS011;10165;42.662;23.260;2024-03-02T00:14:20;19.30;;;10.27;;
20008;SDS011;10165;42.662;23.260;2024-03-02T00:16:47;15.00;;;8.50;;
20008;SDS011;10165;42.662;23.260;2024-03-02T00:19:14;14.63;;;8.57;;
20008;SDS011;10165;42.662;23.260;2024-03-02T00:21:41;20.17;;;10.13;;
20008;SDS011;10165;42.662;23.260;2024-03-02T00:24:12;14.60;;;9.13;;
20008;SDS011;10165;42.662;23.260;2024-03-02T00:26:47;19.77;;;9.77;;
20008;SDS011;10165;42.662;23.260;2024-03-02T00:29:15;18.67;;;9.10;;
20008;SDS011;10165;42.662;23.260;2024-03-02T00:31:45;17.27;;;9.20;;
20008;SDS011;10165;42.662;23.260;2024-03-02T00:34:12;15.43;;;8.23;;
20008;SDS011;10165;42.662;23.260;2024-03-02T00:36:42;20.10;;;10.13;;
20008;SDS011;10165;42.662;23.260;2024-03-02T00:39:11;19.47;;;9.40;;
20008;SDS011;10165;42.662;23.260;2024-03-02T00:41:40;18.10;;;9.23;;
20008;SDS011;10165;42.662;23.260;2024-03-02T00:44:13;16.23;;;8.63;;
20008;SDS011;10165;42.662;23.260;2024-03-02T00:46:42;18.60;;;9.07;;
20008;SDS011;10165;42.662;23.260;2024-03-02T00:49:17;19.47;;;9.67;;
20008;SDS011;10165;42.662;23.260;2024-03-02T00:51:48;13.83;;;8.00;;
20008;SDS011;10165;42.662;23.260;2024-03-02T00:54:18;21.53;;;10.60;;
20008;SDS011;10165;42.662;23.260;2024-03-02T00:56:46;17.70;;;8.90;;
20008;SDS011;10165;42.662;23.260;2024-03-02T00:59:14;22.07;;;9.63;;
20008;SDS011;10165;42.662;23.260;2024-03-02T01:01:41;20.90;;;10.33;;
20008;SDS011;10165;42.662;23.260;2024-03-02T01:04:08;21.23;;;10.57;;
20008;SDS011;10165;42.662;23.260;2024-03-02T01:06:35;18.50;;;9.40;;
20008;SDS011;10165;42.662;23.260;2024-03-02T01:09:02;19.53;;;11.03;;
20008;SDS011;10165;42.662;23.260;2024-03-02T01:11:29;24.37;;;10.83;;
20008;SDS011;10165;42.662;23.260;2024-03-02T01:13:56;19.80;;;10.17;;
20008;SDS011;10165;42.662;23.260;2024-03-02T01:16:23;22.67;;;10.97;;
20008;SDS011;10165;42.662;23.260;2024-03-02T01:18:50;20.17;;;10.40;;
20008;SDS011;10165;42.662;23.260;2024-03-02T01:21:17;20.83;;;10.03;;
20008;SDS011;10165;42.662;23.260;2024-03-02T01:23:44;19.97;;;10.47;;
20008;SDS011;10165;42.662;23.260;2024-03-02T01:26:11;22.50;;;11.37;;
20008;SDS011;10165;42.662;23.260;2024-03-02T01:28:37;23.63;;;11.77;;
20008;SDS011;10165;42.662;23.260;2024-03-02T01:31:04;17.80;;;10.53;;
20008;SDS011;10165;42.662;23.260;2024-03-02T01:33:31;20.53;;;9.90;;
20008;SDS011;10165;42.662;23.260;2024-03-02T01:35:58;16.77;;;9.73;;
20008;SDS011;10165;42.662;23.260;2024-03-02T01:38:24;19.10;;;10.43;;
20008;SDS011;10165;42.662;23.260;2024-03-02T01:40:52;19.73;;;10.17;;
20008;SDS011;10165;42.662;23.260;2024-03-02T01:43:21;22.83;;;10.80;;
20008;SDS011;10165;42.662;23.260;2024-03-02T01:45:48;19.33;;;10.17;;
20008;SDS011;10165;42.662;23.260;2024-03-02T01:48:14;20.07;;;9.67;;
20008;SDS011;10165;42.662;23.260;2024-03-02T01:50:41;19.07;;;9.43;;
20008;SDS011;10165;42.662;23.260;2024-03-02T01:53:08;22.70;;;10.40;;
20008;SDS011;10165;42.662;23.260;2024-03-02T01:55:35;21.07;;;10.63;;
20008;SDS011;10165;42.662;23.260;2024-03-02T01:58:02;19.87;;;10.60;;
20008;SDS011;10165;42.662;23.260;2024-03-02T02:00:29;18.17;;;10.43;;
20008;SDS011;10165;42.662;23.260;2024-03-02T02:02:56;18.13;;;10.03;;
20008;SDS011;10165;42.662;23.260;2024-03-02T02:05:24;18.87;;;10.63;;
20008;SDS011;10165;42.662;23.260;2024-03-02T02:07:51;20.70;;;9.50;;
20008;SDS011;10165;42.662;23.260;2024-03-02T02:10:17;21.00;;;10.37;;
20008;SDS011;10165;42.662;23.260;2024-03-02T02:12:44;22.53;;;10.73;;
20008;SDS011;10165;42.662;23.260;2024-03-02T02:15:24;21.73;;;11.53;;
20008;SDS011;10165;42.662;23.260;2024-03-02T02:17:58;19.63;;;10.03;;
20008;SDS011;10165;42.662;23.260;2024-03-02T02:20:25;22.10;;;11.40;;
20008;SDS011;10165;42.662;23.260;2024-03-02T02:25:27;17.33;;;9.80;;
20008;SDS011;10165;42.662;23.260;2024-03-02T02:27:55;23.00;;;10.20;;
20008;SDS011;10165;42.662;23.260;2024-03-02T02:30:27;16.53;;;9.53;;
20008;SDS011;10165;42.662;23.260;2024-03-02T02:32:55;18.10;;;10.03;;
20008;SDS011;10165;42.662;23.260;2024-03-02T02:35:22;18.83;;;9.33;;
20008;SDS011;10165;42.662;23.260;2024-03-02T02:37:51;19.50;;;9.87;;
20008;SDS011;10165;42.662;23.260;2024-03-02T02:40:19;19.40;;;10.37;;
20008;SDS011;10165;42.662;23.260;2024-03-02T02:42:46;23.67;;;10.63;;
20008;SDS011;10165;42.662;23.260;2024-03-02T02:45:13;21.70;;;9.73;;
20008;SDS011;10165;42.662;23.260;2024-03-02T02:47:41;17.17;;;10.10;;
20008;SDS011;10165;42.662;23.260;2024-03-02T02:50:09;22.33;;;10.47;;
20008;SDS011;10165;42.662;23.260;2024-03-02T02:52:36;20.40;;;10.43;;
20008;SDS011;10165;42.662;23.260;2024-03-02T02:55:06;21.97;;;10.43;;
20008;SDS011;10165;42.662;23.260;2024-03-02T02:57:35;19.57;;;10.70;;
20008;SDS011;10165;42.662;23.260;2024-03-02T03:00:08;18.00;;;9.73;;
20008;SDS011;10165;42.662;23.260;2024-03-02T03:02:43;18.30;;;10.40;;
20008;SDS011;10165;42.662;23.260;2024-03-02T03:05:14;16.87;;;9.43;;
20008;SDS011;10165;42.662;23.260;2024-03-02T03:07:41;24.17;;;11.50;;
20008;SDS011;10165;42.662;23.260;2024-03-02T03:10:08;24.27;;;13.13;;
20008;SDS011;10165;42.662;23.260;2024-03-02T03:12:35;24.37;;;11.67;;
20008;SDS011;10165;42.662;23.260;2024-03-02T03:15:03;22.73;;;11.80;;
20008;SDS011;10165;42.662;23.260;2024-03-02T03:17:31;22.07;;;11.80;;
20008;SDS011;10165;42.662;23.260;2024-03-02T03:19:58;21.70;;;11.67;;
20008;SDS011;10165;42.662;23.260;2024-03-02T03:22:24;24.53;;;12.07;;
20008;SDS011;10165;42.662;23.260;2024-03-02T03:24:51;25.37;;;12.17;;
20008;SDS011;10165;42.662;23.260;2024-03-02T03:27:18;25.77;;;11.73;;
20008;SDS011;10165;42.662;23.260;2024-03-02T03:29:46;25.67;;;12.27;;
20008;SDS011;10165;42.662;23.260;2024-03-02T03:32:13;26.90;;;12.57;;
20008;SDS011;10165;42.662;23.260;2024-03-02T03:34:40;26.67;;;12.83;;
20008;SDS011;10165;42.662;23.260;2024-03-02T03:37:07;25.60;;;13.63;;
20008;SDS011;10165;42.662;23.260;2024-03-02T03:39:34;31.73;;;14.07;;
20008;SDS011;10165;42.662;23.260;2024-03-02T03:42:02;24.17;;;12.70;;
20008;SDS011;10165;42.662;23.260;2024-03-02T03:44:29;27.40;;;12.57;;
20008;SDS011;10165;42.662;23.260;2024-03-02T03:46:56;24.33;;;12.53;;
20008;SDS011;10165;42.662;23.260;2024-03-02T03:49:23;31.47;;;12.97;;
20008;SDS011;10165;42.662;23.260;2024-03-02T03:51:50;28.97;;;13.23;;
20008;SDS011;10165;42.662;23.260;2024-03-02T03:54:17;24.77;;;12.67;;
20008;SDS011;10165;42.662;23.260;2024-03-02T03:56:43;22.77;;;12.80;;
20008;SDS011;10165;42.662;23.260;2024-03-02T03:59:10;27.77;;;14.07;;
20008;SDS011;10165;42.662;23.260;2024-03-02T04:01:37;23.40;;;12.53;;
20008;SDS011;10165;42.662;23.260;2024-03-02T04:04:04;23.70;;;12.90;;
20008;SDS011;10165;42.662;23.260;2024-03-02T04:06:31;23.20;;;11.20;;
20008;SDS011;10165;42.662;23.260;2024-03-02T04:08:58;23.70;;;11.97;;
20008;SDS011;10165;42.662;23.260;2024-03-02T04:11:25;23.53;;;11.23;;
20008;SDS011;10165;42.662;23.260;2024-03-02T04:13:52;28.43;;;12.83;;
20008;SDS011;10165;42.662;23.260;2024-03-02T04:16:22;23.03;;;11.87;;
20008;SDS011;10165;42.662;23.260;2024-03-02T04:18:49;27.67;;;13.13;;
20008;SDS011;10165;42.662;23.260;2024-03-02T04:21:16;25.63;;;11.97;;
20008;SDS011;10165;42.662;23.260;2024-03-02T04:23:42;28.80;;;13.43;;
20008;SDS011;10165;42.662;23.260;2024-03-02T04:26:09;26.27;;;13.37;;
20008;SDS011;10165;42.662;23.260;2024-03-02T04:28:36;24.90;;;12.93;;
20008;SDS011;10165;42.662;23.260;2024-03-02T04:31:02;21.53;;;11.57;;
20008;SDS011;10165;42.662;23.260;2024-03-02T04:33:30;25.83;;;12.93;;
20008;SDS011;10165;42.662;23.260;2024-03-02T04:35:56;27.83;;;14.27;;
20008;SDS011;10165;42.662;23.260;2024-03-02T04:38:24;24.97;;;12.87;;
20008;SDS011;10165;42.662;23.260;2024-03-02T04:40:50;25.47;;;12.23;;
20008;SDS011;10165;42.662;23.260;2024-03-02T04:43:17;30.87;;;13.67;;
20008;SDS011;10165;42.662;23.260;2024-03-02T04:45:45;30.87;;;14.80;;
20008;SDS011;10165;42.662;23.260;2024-03-02T04:48:12;26.83;;;13.37;;
20008;SDS011;10165;42.662;23.260;2024-03-02T04:50:40;23.93;;;12.50;;
20008;SDS011;10165;42.662;23.260;2024-03-02T04:53:07;28.67;;;13.87;;
20008;SDS011;10165;42.662;23.260;2024-03-02T04:55:34;26.00;;;14.20;;
20008;SDS011;10165;42.662;23.260;2024-03-02T04:58:01;30.47;;;14.37;;
20008;SDS011;10165;42.662;23.260;2024-03-02T05:00:27;26.43;;;13.20;;
20008;SDS011;10165;42.662;23.260;2024-03-02T05:02:54;23.30;;;13.30;;
20008;SDS011;10165;42.662;23.260;2024-03-02T05:05:21;28.87;;;14.20;;
20008;SDS011;10165;42.662;23.260;2024-03-02T05:07:48;24.23;;;13.07;;
20008;SDS011;10165;42.662;23.260;2024-03-02T05:10:14;31.33;;;15.47;;
20008;SDS011;10165;42.662;23.260;2024-03-02T05:12:41;27.00;;;14.10;;
20008;SDS011;10165;42.662;23.260;2024-03-02T05:15:09;29.83;;;14.90;;
20008;SDS011;10165;42.662;23.260;2024-03-02T05:17:42;30.87;;;14.40;;
20008;SDS011;10165;42.662;23.260;2024-03-02T05:20:12;31.67;;;13.83;;
20008;SDS011;10165;42.662;23.260;2024-03-02T05:22:39;27.70;;;13.40;;
20008;SDS011;10165;42.662;23.260;2024-03-02T05:25:06;25.90;;;12.40;;
20008;SDS011;10165;42.662;23.260;2024-03-02T05:27:33;29.83;;;15.20;;
20008;SDS011;10165;42.662;23.260;2024-03-02T05:30:00;28.53;;;14.20;;
20008;SDS011;10165;42.662;23.260;2024-03-02T05:32:29;27.13;;;13.87;;
20008;SDS011;10165;42.662;23.260;2024-03-02T05:34:56;29.90;;;13.03;;
20008;SDS011;10165;42.662;23.260;2024-03-02T05:37:22;26.93;;;13.60;;
20008;SDS011;10165;42.662;23.260;2024-03-02T05:39:49;27.60;;;14.00;;
20008;SDS011;10165;42.662;23.260;2024-03-02T05:42:16;30.13;;;15.40;;
20008;SDS011;10165;42.662;23.260;2024-03-02T05:44:48;29.83;;;13.80;;
20008;SDS011;10165;42.662;23.260;2024-03-02T05:47:14;32.20;;;14.97;;
20008;SDS011;10165;42.662;23.260;2024-03-02T05:49:42;26.73;;;13.93;;
20008;SDS011;10165;42.662;23.260;2024-03-02T05:52:09;27.73;;;14.83;;
20008;SDS011;10165;42.662;23.260;2024-03-02T05:54:37;23.07;;;12.20;;
20008;SDS011;10165;42.662;23.260;2024-03-02T05:57:05;26.23;;;13.90;;
20008;SDS011;10165;42.662;23.260;2024-03-02T05:59:58;26.67;;;14.00;;
20008;SDS011;10165;42.662;23.260;2024-03-02T06:02:25;29.03;;;14.63;;
20008;SDS011;10165;42.662;23.260;2024-03-02T06:04:53;30.87;;;15.23;;
20008;SDS011;10165;42.662;23.260;2024-03-02T06:07:22;27.90;;;14.23;;
20008;SDS011;10165;42.662;23.260;2024-03-02T06:09:49;25.40;;;12.90;;
20008;SDS011;10165;42.662;23.260;2024-03-02T06:12:18;24.80;;;13.83;;
20008;SDS011;10165;42.662;23.260;2024-03-02T06:14:45;27.73;;;14.47;;
20008;SDS011;10165;42.662;23.260;2024-03-02T06:17:12;29.13;;;14.77;;
20008;SDS011;10165;42.662;23.260;2024-03-02T06:19:38;33.23;;;14.13;;
20008;SDS011;10165;42.662;23.260;2024-03-02T06:22:05;31.20;;;14.87;;
20008;SDS011;10165;42.662;23.260;2024-03-02T06:24:32;31.03;;;13.20;;
20008;SDS011;10165;42.662;23.260;2024-03-02T06:26:59;29.83;;;13.27;;
20008;SDS011;10165;42.662;23.260;2024-03-02T06:29:26;28.90;;;13.47;;
20008;SDS011;10165;42.662;23.260;2024-03-02T06:31:52;32.17;;;13.77;;
20008;SDS011;10165;42.662;23.260;2024-03-02T06:34:20;28.97;;;14.53;;
20008;SDS011;10165;42.662;23.260;2024-03-02T06:36:47;29.27;;;14.27;;
20008;SDS011;10165;42.662;23.260;2024-03-02T06:39:14;27.83;;;14.90;;
20008;SDS011;10165;42.662;23.260;2024-03-02T06:41:41;28.83;;;15.17;;
20008;SDS011;10165;42.662;23.260;2024-03-02T06:44:08;29.10;;;14.00;;
20008;SDS011;10165;42.662;23.260;2024-03-02T06:46:35;29.53;;;14.20;;
20008;SDS011;10165;42.662;23.260;2024-03-02T06:49:02;26.57;;;13.57;;
20008;SDS011;10165;42.662;23.260;2024-03-02T06:51:30;27.13;;;13.50;;
20008;SDS011;10165;42.662;23.260;2024-03-02T06:53:57;28.10;;;14.17;;
20008;SDS011;10165;42.662;23.260;2024-03-02T06:56:23;30.00;;;14.20;;
20008;SDS011;10165;42.662;23.260;2024-03-02T06:58:50;34.73;;;15.30;;
20008;SDS011;10165;42.662;23.260;2024-03-02T07:01:17;34.00;;;13.00;;
20008;SDS011;10165;42.662;23.260;2024-03-02T07:03:43;29.17;;;13.40;;
20008;SDS011;10165;42.662;23.260;2024-03-02T07:06:10;24.80;;;12.63;;
20008;SDS011;10165;42.662;23.260;2024-03-02T07:08:37;20.27;;;10.20;;
20008;SDS011;10165;42.662;23.260;2024-03-02T07:11:04;20.67;;;11.13;;
20008;SDS011;10165;42.662;23.260;2024-03-02T07:13:30;23.73;;;10.93;;
20008;SDS011;10165;42.662;23.260;2024-03-02T07:15:57;19.10;;;9.83;;
20008;SDS011;10165;42.662;23.260;2024-03-02T07:18:30;17.00;;;9.03;;
20008;SDS011;10165;42.662;23.260;2024-03-02T07:20:57;20.33;;;9.97;;
20008;SDS011;10165;42.662;23.260;2024-03-02T07:23:27;16.07;;;9.30;;
20008;SDS011;10165;42.662;23.260;2024-03-02T07:25:54;21.20;;;10.37;;
20008;SDS011;10165;42.662;23.260;2024-03-02T07:28:25;22.87;;;10.90;;
20008;SDS011;10165;42.662;23.260;2024-03-02T07:31:02;22.37;;;8.97;;
20008;SDS011;10165;42.662;23.260;2024-03-02T07:33:31;20.77;;;10.33;;
20008;SDS011;10165;42.662;23.260;2024-03-02T07:35:58;20.87;;;10.00;;
20008;SDS011;10165;42.662;23.260;2024-03-02T07:38:30;22.90;;;12.30;;
20008;SDS011;10165;42.662;23.260;2024-03-02T07:40:58;19.73;;;10.83;;
20008;SDS011;10165;42.662;23.260;2024-03-02T07:43:24;24.07;;;11.87;;
20008;SDS011;10165;42.662;23.260;2024-03-02T07:45:51;20.20;;;10.30;;
20008;SDS011;10165;42.662;23.260;2024-03-02T07:48:18;24.13;;;13.10;;
20008;SDS011;10165;42.662;23.260;2024-03-02T07:50:45;21.23;;;12.33;;
20008;SDS011;10165;42.662;23.260;2024-03-02T07:53:12;25.13;;;14.57;;
20008;SDS011;10165;42.662;23.260;2024-03-02T07:55:39;24.23;;;10.77;;
20008;SDS011;10165;42.662;23.260;2024-03-02T07:58:06;32.23;;;14.43;;
20008;SDS011;10165;42.662;23.260;2024-03-02T08:00:33;23.23;;;12.17;;
20008;SDS011;10165;42.662;23.260;2024-03-02T08:03:00;29.87;;;13.10;;
20008;SDS011;10165;42.662;23.260;2024-03-02T08:05:27;30.57;;;15.13;;
20008;SDS011;10165;42.662;23.260;2024-03-02T08:07:54;23.23;;;10.40;;
20008;SDS011;10165;42.662;23.260;2024-03-02T08:10:22;26.07;;;13.20;;
20008;SDS011;10165;42.662;23.260;2024-03-02T08:12:48;28.70;;;14.57;;
20008;SDS011;10165;42.662;23.260;2024-03-02T08:15:15;27.70;;;13.83;;
20008;SDS011;10165;42.662;23.260;2024-03-02T08:17:42;27.00;;;13.50;;
20008;SDS011;10165;42.662;23.260;2024-03-02T08:20:11;27.43;;;12.83;;
20008;SDS011;10165;42.662;23.260;2024-03-02T08:22:38;29.50;;;14.53;;
20008;SDS011;10165;42.662;23.260;2024-03-02T08:25:06;25.57;;;12.33;;
20008;SDS011;10165;42.662;23.260;2024-03-02T08:27:34;23.93;;;11.70;;
20008;SDS011;10165;42.662;23.260;2024-03-02T08:30:01;26.83;;;11.43;;
20008;SDS011;10165;42.662;23.260;2024-03-02T08:32:32;28.13;;;12.40;;
20008;SDS011;10165;42.662;23.260;2024-03-02T08:34:59;28.80;;;13.20;;
20008;SDS011;10165;42.662;23.260;2024-03-02T08:37:26;24.40;;;12.10;;
20008;SDS011;10165;42.662;23.260;2024-03-02T08:39:53;28.53;;;11.47;;
20008;SDS011;10165;42.662;23.260;2024-03-02T08:42:22;22.53;;;12.00;;
20008;SDS011;10165;42.662;23.260;2024-03-02T08:44:49;28.27;;;12.03;;
20008;SDS011;10165;42.662;23.260;2024-03-02T08:47:17;21.30;;;11.47;;
20008;SDS011;10165;42.662;23.260;2024-03-02T08:49:43;24.23;;;11.67;;
20008;SDS011;10165;42.662;23.260;2024-03-02T08:52:10;26.00;;;11.77;;
20008;SDS011;10165;42.662;23.260;2024-03-02T08:54:37;29.03;;;11.93;;
20008;SDS011;10165;42.662;23.260;2024-03-02T08:57:04;21.77;;;10.30;;
20008;SDS011;10165;42.662;23.260;2024-03-02T08:59:32;26.23;;;12.70;;
20008;SDS011;10165;42.662;23.260;2024-03-02T09:01:58;26.70;;;12.30;;
20008;SDS011;10165;42.662;23.260;2024-03-02T09:04:25;31.23;;;13.40;;
20008;SDS011;10165;42.662;23.260;2024-03-02T09:06:54;33.00;;;14.20;;
20008;SDS011;10165;42.662;23.260;2024-03-02T09:09:22;23.17;;;11.63;;
20008;SDS011;10165;42.662;23.260;2024-03-02T09:11:48;28.97;;;14.70;;
20008;SDS011;10165;42.662;23.260;2024-03-02T09:14:15;28.53;;;12.43;;
20008;SDS011;10165;42.662;23.260;2024-03-02T09:16:42;25.77;;;11.27;;
20008;SDS011;10165;42.662;23.260;2024-03-02T09:19:09;18.30;;;11.60;;
20008;SDS011;10165;42.662;23.260;2024-03-02T09:21:37;22.50;;;11.53;;
20008;SDS011;10165;42.662;23.260;2024-03-02T09:24:04;21.93;;;10.97;;
20008;SDS011;10165;42.662;23.260;2024-03-02T09:26:33;23.17;;;10.33;;
20008;SDS011;10165;42.662;23.260;2024-03-02T09:28:59;20.90;;;10.50;;
20008;SDS011;10165;42.662;23.260;2024-03-02T09:31:26;22.57;;;11.20;;
20008;SDS011;10165;42.662;23.260;2024-03-02T09:33:53;21.37;;;10.47;;
20008;SDS011;10165;42.662;23.260;2024-03-02T09:36:21;20.77;;;9.93;;
20008;SDS011;10165;42.662;23.260;2024-03-02T09:38:49;19.93;;;9.67;;
20008;SDS011;10165;42.662;23.260;2024-03-02T09:41:16;21.27;;;10.10;;
20008;SDS011;10165;42.662;23.260;2024-03-02T09:43:43;21.43;;;10.93;;
20008;SDS011;10165;42.662;23.260;2024-03-02T09:46:10;23.73;;;10.50;;
20008;SDS011;10165;42.662;23.260;2024-03-02T09:48:37;22.60;;;11.33;;
20008;SDS011;10165;42.662;23.260;2024-03-02T09:51:04;21.13;;;10.63;;
20008;SDS011;10165;42.662;23.260;2024-03-02T09:53:32;21.33;;;11.50;;
20008;SDS011;10165;42.662;23.260;2024-03-02T09:56:00;20.53;;;10.67;;
20008;SDS011;10165;42.662;23.260;2024-03-02T09:58:28;21.67;;;9.83;;
20008;SDS011;10165;42.662;23.260;2024-03-02T10:00:55;20.47;;;9.57;;
20008;SDS011;10165;42.662;23.260;2024-03-02T10:03:22;19.53;;;9.83;;
20008;SDS011;10165;42.662;23.260;2024-03-02T10:05:51;22.90;;;10.77;;
20008;SDS011;10165;42.662;23.260;2024-03-02T10:08:18;21.50;;;9.90;;
20008;SDS011;10165;42.662;23.260;2024-03-02T10:10:45;19.63;;;10.20;;
20008;SDS011;10165;42.662;23.260;2024-03-02T10:13:12;25.47;;;10.43;;
20008;SDS011;10165;42.662;23.260;2024-03-02T10:15:40;19.00;;;10.87;;
20008;SDS011;10165;42.662;23.260;2024-03-02T10:18:11;24.97;;;11.53;;
20008;SDS011;10165;42.662;23.260;2024-03-02T10:20:40;23.03;;;11.60;;
20008;SDS011;10165;42.662;23.260;2024-03-02T10:25:41;18.87;;;10.27;;
20008;SDS011;10165;42.662;23.260;2024-03-02T10:28:22;24.20;;;11.63;;
20008;SDS011;10165;42.662;23.260;2024-03-02T10:30:49;21.43;;;12.03;;
20008;SDS011;10165;42.662;23.260;2024-03-02T10:33:18;23.87;;;11.30;;
20008;SDS011;10165;42.662;23.260;2024-03-02T10:35:45;24.73;;;12.67;;
20008;SDS011;10165;42.662;23.260;2024-03-02T10:38:14;25.97;;;13.23;;
20008;SDS011;10165;42.662;23.260;2024-03-02T10:40:41;26.47;;;12.50;;
20008;SDS011;10165;42.662;23.260;2024-03-02T10:43:13;24.87;;;11.20;;
20008;SDS011;10165;42.662;23.260;2024-03-02T10:45:41;18.07;;;10.93;;
20008;SDS011;10165;42.662;23.260;2024-03-02T10:48:08;22.90;;;11.20;;
20008;SDS011;10165;42.662;23.260;2024-03-02T10:50:35;25.83;;;13.00;;
20008;SDS011;10165;42.662;23.260;2024-03-02T10:53:02;26.20;;;13.10;;
20008;SDS011;10165;42.662;23.260;2024-03-02T10:55:30;28.77;;;14.03;;
20008;SDS011;10165;42.662;23.260;2024-03-02T10:57:58;28.90;;;13.03;;
20008;SDS011;10165;42.662;23.260;2024-03-02T11:00:30;29.37;;;12.87;;
20008;SDS011;10165;42.662;23.260;2024-03-02T11:03:07;31.23;;;13.10;;
20008;SDS011;10165;42.662;23.260;2024-03-02T11:05:38;36.77;;;17.67;;
20008;SDS011;10165;42.662;23.260;2024-03-02T11:08:07;31.93;;;17.13;;
20008;SDS011;10165;42.662;23.260;2024-03-02T11:10:41;28.07;;;14.23;;
20008;SDS011;10165;42.662;23.260;2024-03-02T11:13:27;32.53;;;16.47;;
20008;SDS011;10165;42.662;23.260;2024-03-02T11:15:59;45.90;;;20.00;;
20008;SDS011;10165;42.662;23.260;2024-03-02T11:18:32;37.27;;;17.00;;
20008;SDS011;10165;42.662;23.260;2024-03-02T11:21:00;32.40;;;15.83;;
20008;SDS011;10165;42.662;23.260;2024-03-02T11:23:32;34.60;;;17.10;;
20008;SDS011;10165;42.662;23.260;2024-03-02T11:28:50;33.50;;;16.40;;
20008;SDS011;10165;42.662;23.260;2024-03-02T11:31:17;29.17;;;14.77;;
20008;SDS011;10165;42.662;23.260;2024-03-02T11:33:44;33.50;;;15.33;;
20008;SDS011;10165;42.662;23.260;2024-03-02T11:36:10;30.33;;;15.20;;
20008;SDS011;10165;42.662;23.260;2024-03-02T11:38:38;29.40;;;14.67;;
20008;SDS011;10165;42.662;23.260;2024-03-02T11:41:08;27.80;;;14.30;;
20008;SDS011;10165;42.662;23.260;2024-03-02T11:43:38;27.27;;;13.23;;
20008;SDS011;10165;42.662;23.260;2024-03-02T11:46:06;30.90;;;14.13;;
20008;SDS011;10165;42.662;23.260;2024-03-02T11:48:37;34.10;;;13.80;;
20008;SDS011;10165;42.662;23.260;2024-03-02T11:51:06;32.07;;;14.23;;
20008;SDS011;10165;42.662;23.260;2024-03-02T11:53:32;32.50;;;14.53;;
20008;SDS011;10165;42.662;23.260;2024-03-02T11:56:02;27.17;;;13.00;;
20008;SDS011;10165;42.662;23.260;2024-03-02T11:58:29;27.50;;;14.20;;
20008;SDS011;10165;42.662;23.260;2024-03-02T12:00:56;28.77;;;15.10;;
20008;SDS011;10165;42.662;23.260;2024-03-02T12:03:24;27.73;;;13.87;;
20008;SDS011;10165;42.662;23.260;2024-03-02T12:05:53;31.40;;;16.60;;
20008;SDS011;10165;42.662;23.260;2024-03-02T12:08:20;27.63;;;13.37;;
20008;SDS011;10165;42.662;23.260;2024-03-02T12:11:00;24.40;;;12.83;;
20008;SDS011;10165;42.662;23.260;2024-03-02T12:13:30;24.60;;;12.43;;
20008;SDS011;10165;42.662;23.260;2024-03-02T12:15:57;25.87;;;11.43;;
20008;SDS011;10165;42.662;23.260;2024-03-02T12:18:24;26.40;;;13.57;;
20008;SDS011;10165;42.662;23.260;2024-03-02T12:20:52;24.53;;;12.50;;
20008;SDS011;10165;42.662;23.260;2024-03-02T12:23:22;21.07;;;12.47;;
20008;SDS011;10165;42.662;23.260;2024-03-02T12:25:49;24.73;;;13.80;;
20008;SDS011;10165;42.662;23.260;2024-03-02T12:28:17;24.17;;;12.40;;
20008;SDS011;10165;42.662;23.260;2024-03-02T12:30:44;27.10;;;13.30;;
20008;SDS011;10165;42.662;23.260;2024-03-02T12:33:11;22.40;;;12.93;;
20008;SDS011;10165;42.662;23.260;2024-03-02T12:35:38;22.47;;;13.07;;
20008;SDS011;10165;42.662;23.260;2024-03-02T12:38:06;27.03;;;13.70;;
20008;SDS011;10165;42.662;23.260;2024-03-02T12:40:33;21.47;;;12.57;;
20008;SDS011;10165;42.662;23.260;2024-03-02T12:43:00;27.43;;;14.10;;
20008;SDS011;10165;42.662;23.260;2024-03-02T12:45:27;25.30;;;13.87;;
20008;SDS011;10165;42.662;23.260;2024-03-02T12:47:54;31.27;;;15.27;;
20008;SDS011;10165;42.662;23.260;2024-03-02T12:50:21;26.47;;;15.03;;
20008;SDS011;10165;42.662;23.260;2024-03-02T12:52:51;24.17;;;13.87;;
20008;SDS011;10165;42.662;23.260;2024-03-02T12:55:20;25.93;;;14.27;;
20008;SDS011;10165;42.662;23.260;2024-03-02T12:57:50;26.17;;;13.70;;
20008;SDS011;10165;42.662;23.260;2024-03-02T13:00:19;28.13;;;14.20;;
20008;SDS011;10165;42.662;23.260;2024-03-02T13:02:47;26.27;;;14.80;;
20008;SDS011;10165;42.662;23.260;2024-03-02T13:05:15;30.93;;;15.23;;
20008;SDS011;10165;42.662;23.260;2024-03-02T13:07:42;26.70;;;16.37;;
20008;SDS011;10165;42.662;23.260;2024-03-02T13:10:09;26.77;;;14.23;;
20008;SDS011;10165;42.662;23.260;2024-03-02T13:12:36;20.27;;;12.93;;
20008;SDS011;10165;42.662;23.260;2024-03-02T13:15:04;24.87;;;13.70;;
20008;SDS011;10165;42.662;23.260;2024-03-02T13:17:34;29.70;;;14.57;;
20008;SDS011;10165;42.662;23.260;2024-03-02T13:20:04;23.60;;;13.50;;
20008;SDS011;10165;42.662;23.260;2024-03-02T13:22:35;28.43;;;13.73;;
20008;SDS011;10165;42.662;23.260;2024-03-02T13:25:02;23.03;;;13.07;;
20008;SDS011;10165;42.662;23.260;2024-03-02T13:27:33;30.07;;;15.03;;
20008;SDS011;10165;42.662;23.260;2024-03-02T13:30:01;26.33;;;14.77;;
20008;SDS011;10165;42.662;23.260;2024-03-02T13:32:29;29.40;;;14.37;;
20008;SDS011;10165;42.662;23.260;2024-03-02T13:34:56;27.93;;;14.70;;
20008;SDS011;10165;42.662;23.260;2024-03-02T13:37:22;25.63;;;13.60;;
20008;SDS011;10165;42.662;23.260;2024-03-02T13:39:49;25.73;;;14.40;;
20008;SDS011;10165;42.662;23.260;2024-03-02T13:42:16;29.47;;;14.93;;
20008;SDS011;10165;42.662;23.260;2024-03-02T13:44:43;27.87;;;15.53;;
20008;SDS011;10165;42.662;23.260;2024-03-02T13:47:13;23.13;;;13.20;;
20008;SDS011;10165;42.662;23.260;2024-03-02T13:49:40;28.37;;;14.17;;
20008;SDS011;10165;42.662;23.260;2024-03-02T13:52:11;28.30;;;14.57;;
20008;SDS011;10165;42.662;23.260;2024-03-02T13:54:40;31.97;;;16.60;;
20008;SDS011;10165;42.662;23.260;2024-03-02T13:57:08;25.20;;;14.07;;
20008;SDS011;10165;42.662;23.260;2024-03-02T13:59:36;28.97;;;16.03;;
20008;SDS011;10165;42.662;23.260;2024-03-02T14:02:06;35.03;;;14.60;;
20008;SDS011;10165;42.662;23.260;2024-03-02T14:04:35;30.50;;;15.13;;
20008;SDS011;10165;42.662;23.260;2024-03-02T14:07:03;25.47;;;13.23;;
20008;SDS011;10165;42.662;23.260;2024-03-02T14:09:30;29.17;;;13.67;;
20008;SDS011;10165;42.662;23.260;2024-03-02T14:11:57;23.27;;;13.03;;
20008;SDS011;10165;42.662;23.260;2024-03-02T14:14:26;25.20;;;13.67;;
20008;SDS011;10165;42.662;23.260;2024-03-02T14:16:56;28.57;;;15.80;;
20008;SDS011;10165;42.662;23.260;2024-03-02T14:19:26;25.27;;;14.20;;
20008;SDS011;10165;42.662;23.260;2024-03-02T14:21:53;30.50;;;14.63;;
20008;SDS011;10165;42.662;23.260;2024-03-02T14:24:20;29.37;;;14.30;;